sensor_id;sensor_type;location;lat;lon;timestamp;P1;durP1;ratioP1;P2;durP2;ratioP2
41739;SDS011;27422;52.444;13.300;2023-04-24T00:00:02;5.47;;;2.83;;
41739;SDS011;27422;52.444;13.300;2023-04-24T00:02:31;5.30;;;3.33;;
41739;SDS011;27422;52.444;13.300;2023-04-24T00:04:57;5.63;;;3.50;;
41739;SDS011;27422;52.444;13.300;2023-04-24T00:07:27;4.72;;;2.90;;
41739;SDS011;27422;52.444;13.300;2023-04-24T00:09:53;5.55;;;3.42;;
41739;SDS011;27422;52.444;13.300;2023-04-24T00:12:19;4.82;;;3.17;;
41739;SDS011;27422;52.444;13.300;2023-04-24T00:14:45;4.78;;;2.95;;
41739;SDS011;27422;52.444;13.300;2023-04-24T00:17:10;5.70;;;3.30;;
41739;SDS011;27422;52.444;13.300;2023-04-24T00:19:35;6.18;;;3.67;;
41739;SDS011;27422;52.444;13.300;2023-04-24T00:22:01;4.80;;;3.33;;
41739;SDS011;27422;52.444;13.300;2023-04-24T00:24:27;5.93;;;3.60;;
41739;SDS011;27422;52.444;13.300;2023-04-24T00:26:53;6.30;;;3.80;;
41739;SDS011;27422;52.444;13.300;2023-04-24T00:29:18;6.88;;;3.72;;
41739;SDS011;27422;52.444;13.300;2023-04-24T00:31:43;4.90;;;3.10;;
41739;SDS011;27422;52.444;13.300;2023-04-24T00:34:09;6.00;;;3.50;;
41739;SDS011;27422;52.444;13.300;2023-04-24T00:36:36;5.68;;;3.47;;
41739;SDS011;27422;52.444;13.300;2023-04-24T00:39:02;5.80;;;3.60;;
41739;SDS011;27422;52.444;13.300;2023-04-24T00:41:27;6.45;;;4.18;;
41739;SDS011;27422;52.444;13.300;2023-04-24T00:43:53;5.75;;;3.40;;
41739;SDS011;27422;52.444;13.300;2023-04-24T00:46:18;6.82;;;3.70;;
41739;SDS011;27422;52.444;13.300;2023-04-24T00:48:44;5.05;;;3.30;;
41739;SDS011;27422;52.444;13.300;2023-04-24T00:51:10;5.95;;;3.55;;
41739;SDS011;27422;52.444;13.300;2023-04-24T00:53:35;6.47;;;3.83;;
41739;SDS011;27422;52.444;13.300;2023-04-24T00:56:01;6.03;;;3.53;;
41739;SDS011;27422;52.444;13.300;2023-04-24T00:58:27;6.20;;;3.75;;
41739;SDS011;27422;52.444;13.300;2023-04-24T01:00:53;6.07;;;3.63;;
41739;SDS011;27422;52.444;13.300;2023-04-24T01:03:22;5.80;;;3.67;;
41739;SDS011;27422;52.444;13.300;2023-04-24T01:05:51;6.07;;;3.90;;
41739;SDS011;27422;52.444;13.300;2023-04-24T01:08:17;5.78;;;3.47;;
41739;SDS011;27422;52.444;13.300;2023-04-24T01:10:42;5.82;;;3.58;;
41739;SDS011;27422;52.444;13.300;2023-04-24T01:13:09;5.97;;;3.58;;
41739;SDS011;27422;52.444;13.300;2023-04-24T01:15:34;5.57;;;3.67;;
41739;SDS011;27422;52.444;13.300;2023-04-24T01:18:00;5.63;;;3.38;;
41739;SDS011;27422;52.444;13.300;2023-04-24T01:20:25;5.85;;;3.65;;
41739;SDS011;27422;52.444;13.300;2023-04-24T01:22:51;5.40;;;3.53;;
41739;SDS011;27422;52.444;13.300;2023-04-24T01:25:17;6.07;;;3.78;;
41739;SDS011;27422;52.444;13.300;2023-04-24T01:27:43;6.28;;;3.40;;
41739;SDS011;27422;52.444;13.300;2023-04-24T01:30:09;5.55;;;3.60;;
41739;SDS011;27422;52.444;13.300;2023-04-24T01:32:35;6.32;;;3.67;;
41739;SDS011;27422;52.444;13.300;2023-04-24T01:35:00;5.38;;;3.53;;
41739;SDS011;27422;52.444;13.300;2023-04-24T01:37:26;5.60;;;3.63;;
41739;SDS011;27422;52.444;13.300;2023-04-24T01:39:51;5.65;;;3.60;;
41739;SDS011;27422;52.444;13.300;2023-04-24T01:42:17;5.53;;;3.40;;
41739;SDS011;27422;52.444;13.300;2023-04-24T01:44:42;6.00;;;3.60;;
41739;SDS011;27422;52.444;13.300;2023-04-24T01:47:08;5.30;;;3.15;;
41739;SDS011;27422;52.444;13.300;2023-04-24T01:49:34;6.70;;;3.58;;
41739;SDS011;27422;52.444;13.300;2023-04-24T01:51:59;5.80;;;3.53;;
41739;SDS011;27422;52.444;13.300;2023-04-24T01:54:25;7.63;;;4.15;;
41739;SDS011;27422;52.444;13.300;2023-04-24T01:56:50;6.28;;;3.90;;
41739;SDS011;27422;52.444;13.300;2023-04-24T01:59:16;6.38;;;3.60;;
41739;SDS011;27422;52.444;13.300;2023-04-24T02:01:42;5.28;;;3.60;;
41739;SDS011;27422;52.444;13.300;2023-04-24T02:04:08;6.88;;;4.45;;
41739;SDS011;27422;52.444;13.300;2023-04-24T02:06:33;6.85;;;4.18;;
41739;SDS011;27422;52.444;13.300;2023-04-24T02:08:59;6.07;;;3.78;;
41739;SDS011;27422;52.444;13.300;2023-04-24T02:11:25;7.13;;;4.10;;
41739;SDS011;27422;52.444;13.300;2023-04-24T02:13:51;5.80;;;3.75;;
41739;SDS011;27422;52.444;13.300;2023-04-24T02:16:17;6.10;;;3.78;;
41739;SDS011;27422;52.444;13.300;2023-04-24T02:18:43;5.78;;;3.83;;
41739;SDS011;27422;52.444;13.300;2023-04-24T02:21:09;6.35;;;3.88;;
41739;SDS011;27422;52.444;13.300;2023-04-24T02:23:34;6.90;;;4.10;;
41739;SDS011;27422;52.444;13.300;2023-04-24T02:26:00;6.47;;;3.80;;
41739;SDS011;27422;52.444;13.300;2023-04-24T02:28:25;5.97;;;3.63;;
41739;SDS011;27422;52.444;13.300;2023-04-24T02:30:51;6.40;;;4.00;;
41739;SDS011;27422;52.444;13.300;2023-04-24T02:33:16;5.90;;;4.00;;
41739;SDS011;27422;52.444;13.300;2023-04-24T02:35:41;5.95;;;4.03;;
41739;SDS011;27422;52.444;13.300;2023-04-24T02:38:07;7.00;;;4.05;;
41739;SDS011;27422;52.444;13.300;2023-04-24T02:40:32;6.53;;;4.10;;
41739;SDS011;27422;52.444;13.300;2023-04-24T02:42:57;5.72;;;4.03;;
41739;SDS011;27422;52.444;13.300;2023-04-24T02:45:23;6.15;;;3.70;;
41739;SDS011;27422;52.444;13.300;2023-04-24T02:47:48;6.38;;;3.78;;
41739;SDS011;27422;52.444;13.300;2023-04-24T02:50:15;6.20;;;4.07;;
41739;SDS011;27422;52.444;13.300;2023-04-24T02:52:40;6.27;;;4.27;;
41739;SDS011;27422;52.444;13.300;2023-04-24T02:55:06;5.55;;;3.95;;
41739;SDS011;27422;52.444;13.300;2023-04-24T02:57:33;6.07;;;4.15;;
41739;SDS011;27422;52.444;13.300;2023-04-24T02:59:58;7.00;;;4.20;;
41739;SDS011;27422;52.444;13.300;2023-04-24T03:02:24;6.65;;;3.97;;
41739;SDS011;27422;52.444;13.300;2023-04-24T03:04:50;6.15;;;4.05;;
41739;SDS011;27422;52.444;13.300;2023-04-24T03:07:15;6.60;;;4.32;;
41739;SDS011;27422;52.444;13.300;2023-04-24T03:09:41;6.65;;;4.38;;
41739;SDS011;27422;52.444;13.300;2023-04-24T03:12:06;5.85;;;3.55;;
41739;SDS011;27422;52.444;13.300;2023-04-24T03:14:32;6.10;;;3.78;;
41739;SDS011;27422;52.444;13.300;2023-04-24T03:16:57;6.13;;;3.97;;
41739;SDS011;27422;52.444;13.300;2023-04-24T03:19:23;6.55;;;4.15;;
41739;SDS011;27422;52.444;13.300;2023-04-24T03:21:49;7.35;;;4.40;;
41739;SDS011;27422;52.444;13.300;2023-04-24T03:24:14;5.75;;;3.60;;
41739;SDS011;27422;52.444;13.300;2023-04-24T03:26:40;6.43;;;4.13;;
41739;SDS011;27422;52.444;13.300;2023-04-24T03:29:05;6.50;;;4.15;;
41739;SDS011;27422;52.444;13.300;2023-04-24T03:31:31;6.90;;;3.92;;
41739;SDS011;27422;52.444;13.300;2023-04-24T03:33:56;7.57;;;4.25;;
41739;SDS011;27422;52.444;13.300;2023-04-24T03:36:22;7.82;;;4.05;;
41739;SDS011;27422;52.444;13.300;2023-04-24T03:38:47;6.35;;;4.22;;
41739;SDS011;27422;52.444;13.300;2023-04-24T03:41:12;8.43;;;4.28;;
41739;SDS011;27422;52.444;13.300;2023-04-24T03:43:38;6.00;;;3.88;;
41739;SDS011;27422;52.444;13.300;2023-04-24T03:46:04;6.07;;;4.03;;
41739;SDS011;27422;52.444;13.300;2023-04-24T03:48:30;7.70;;;4.15;;
41739;SDS011;27422;52.444;13.300;2023-04-24T03:50:55;7.03;;;4.32;;
41739;SDS011;27422;52.444;13.300;2023-04-24T03:53:21;6.75;;;4.20;;
41739;SDS011;27422;52.444;13.300;2023-04-24T03:55:46;5.95;;;4.00;;
41739;SDS011;27422;52.444;13.300;2023-04-24T03:58:12;6.30;;;4.43;;
41739;SDS011;27422;52.444;13.300;2023-04-24T04:00:39;6.53;;;3.72;;
41739;SDS011;27422;52.444;13.300;2023-04-24T04:03:05;5.90;;;3.65;;
41739;SDS011;27422;52.444;13.300;2023-04-24T04:05:31;6.38;;;3.85;;
41739;SDS011;27422;52.444;13.300;2023-04-24T04:07:56;6.35;;;3.60;;
41739;SDS011;27422;52.444;13.300;2023-04-24T04:10:21;6.57;;;4.05;;
41739;SDS011;27422;52.444;13.300;2023-04-24T04:12:47;6.57;;;4.07;;
41739;SDS011;27422;52.444;13.300;2023-04-24T04:15:12;5.97;;;3.88;;
41739;SDS011;27422;52.444;13.300;2023-04-24T04:17:38;7.47;;;4.07;;
41739;SDS011;27422;52.444;13.300;2023-04-24T04:20:03;6.10;;;3.88;;
41739;SDS011;27422;52.444;13.300;2023-04-24T04:22:35;5.53;;;3.53;;
41739;SDS011;27422;52.444;13.300;2023-04-24T04:25:01;6.20;;;3.88;;
41739;SDS011;27422;52.444;13.300;2023-04-24T04:27:26;5.53;;;3.60;;
41739;SDS011;27422;52.444;13.300;2023-04-24T04:29:53;5.25;;;3.35;;
41739;SDS011;27422;52.444;13.300;2023-04-24T04:32:18;6.20;;;3.78;;
41739;SDS011;27422;52.444;13.300;2023-04-24T04:34:44;6.38;;;3.47;;
41739;SDS011;27422;52.444;13.300;2023-04-24T04:37:10;4.93;;;2.95;;
41739;SDS011;27422;52.444;13.300;2023-04-24T04:39:37;5.97;;;3.58;;
41739;SDS011;27422;52.444;13.300;2023-04-24T04:42:03;6.80;;;3.10;;
41739;SDS011;27422;52.444;13.300;2023-04-24T04:44:28;4.53;;;2.97;;
41739;SDS011;27422;52.444;13.300;2023-04-24T04:46:55;5.37;;;3.30;;
41739;SDS011;27422;52.444;13.300;2023-04-24T04:49:21;5.22;;;3.00;;
41739;SDS011;27422;52.444;13.300;2023-04-24T04:51:48;5.40;;;3.10;;
41739;SDS011;27422;52.444;13.300;2023-04-24T04:54:15;4.82;;;2.50;;
41739;SDS011;27422;52.444;13.300;2023-04-24T04:56:41;6.03;;;3.20;;
41739;SDS011;27422;52.444;13.300;2023-04-24T04:59:06;5.80;;;3.35;;
41739;SDS011;27422;52.444;13.300;2023-04-24T05:01:32;5.47;;;3.00;;
41739;SDS011;27422;52.444;13.300;2023-04-24T05:03:57;5.38;;;2.67;;
41739;SDS011;27422;52.444;13.300;2023-04-24T05:06:22;4.70;;;2.42;;
41739;SDS011;27422;52.444;13.300;2023-04-24T05:08:48;5.60;;;2.70;;
41739;SDS011;27422;52.444;13.300;2023-04-24T05:11:13;4.70;;;3.05;;
41739;SDS011;27422;52.444;13.300;2023-04-24T05:13:39;4.63;;;2.60;;
41739;SDS011;27422;52.444;13.300;2023-04-24T05:16:05;4.72;;;2.47;;
41739;SDS011;27422;52.444;13.300;2023-04-24T05:18:30;4.90;;;2.42;;
41739;SDS011;27422;52.444;13.300;2023-04-24T05:20:56;3.50;;;2.08;;
41739;SDS011;27422;52.444;13.300;2023-04-24T05:23:21;3.60;;;1.88;;
41739;SDS011;27422;52.444;13.300;2023-04-24T05:25:46;4.47;;;2.47;;
41739;SDS011;27422;52.444;13.300;2023-04-24T05:28:12;3.88;;;1.95;;
41739;SDS011;27422;52.444;13.300;2023-04-24T05:30:37;3.15;;;1.88;;
41739;SDS011;27422;52.444;13.300;2023-04-24T05:33:02;4.03;;;2.20;;
41739;SDS011;27422;52.444;13.300;2023-04-24T05:35:28;4.07;;;2.05;;
41739;SDS011;27422;52.444;13.300;2023-04-24T05:37:56;3.55;;;1.80;;
41739;SDS011;27422;52.444;13.300;2023-04-24T05:40:25;3.03;;;1.73;;
41739;SDS011;27422;52.444;13.300;2023-04-24T05:42:51;3.75;;;2.03;;
41739;SDS011;27422;52.444;13.300;2023-04-24T05:45:16;3.72;;;1.90;;
41739;SDS011;27422;52.444;13.300;2023-04-24T05:47:45;3.17;;;1.52;;
41739;SDS011;27422;52.444;13.300;2023-04-24T05:50:10;4.38;;;1.90;;
41739;SDS011;27422;52.444;13.300;2023-04-24T05:52:36;3.03;;;1.70;;
41739;SDS011;27422;52.444;13.300;2023-04-24T05:55:02;3.53;;;1.67;;
41739;SDS011;27422;52.444;13.300;2023-04-24T05:57:27;3.72;;;1.90;;
41739;SDS011;27422;52.444;13.300;2023-04-24T05:59:52;4.22;;;1.73;;
41739;SDS011;27422;52.444;13.300;2023-04-24T06:02:18;3.78;;;1.50;;
41739;SDS011;27422;52.444;13.300;2023-04-24T06:04:44;3.25;;;1.50;;
41739;SDS011;27422;52.444;13.300;2023-04-24T06:07:13;2.67;;;1.27;;
41739;SDS011;27422;52.444;13.300;2023-04-24T06:09:38;2.88;;;1.30;;
41739;SDS011;27422;52.444;13.300;2023-04-24T06:12:03;2.40;;;1.20;;
41739;SDS011;27422;52.444;13.300;2023-04-24T06:14:29;2.67;;;1.27;;
41739;SDS011;27422;52.444;13.300;2023-04-24T06:16:54;3.25;;;1.50;;
41739;SDS011;27422;52.444;13.300;2023-04-24T06:19:20;3.08;;;1.20;;
41739;SDS011;27422;52.444;13.300;2023-04-24T06:21:45;3.22;;;1.15;;
41739;SDS011;27422;52.444;13.300;2023-04-24T06:24:13;2.20;;;1.08;;
41739;SDS011;27422;52.444;13.300;2023-04-24T06:26:39;2.72;;;0.90;;
41739;SDS011;27422;52.444;13.300;2023-04-24T06:29:05;2.45;;;1.05;;
41739;SDS011;27422;52.444;13.300;2023-04-24T06:31:32;1.92;;;0.88;;
41739;SDS011;27422;52.444;13.300;2023-04-24T06:34:01;2.00;;;0.80;;
41739;SDS011;27422;52.444;13.300;2023-04-24T06:36:27;1.80;;;0.80;;
41739;SDS011;27422;52.444;13.300;2023-04-24T06:38:53;2.67;;;0.80;;
41739;SDS011;27422;52.444;13.300;2023-04-24T06:41:18;1.80;;;0.80;;
41739;SDS011;27422;52.444;13.300;2023-04-24T06:43:44;1.73;;;0.70;;
41739;SDS011;27422;52.444;13.300;2023-04-24T06:46:09;2.75;;;0.90;;
41739;SDS011;27422;52.444;13.300;2023-04-24T06:48:35;2.45;;;0.70;;
41739;SDS011;27422;52.444;13.300;2023-04-24T06:51:00;1.52;;;0.60;;
41739;SDS011;27422;52.444;13.300;2023-04-24T06:53:26;2.40;;;0.70;;
41739;SDS011;27422;52.444;13.300;2023-04-24T06:55:52;2.53;;;0.77;;
41739;SDS011;27422;52.444;13.300;2023-04-24T06:58:17;2.33;;;0.80;;
41739;SDS011;27422;52.444;13.300;2023-04-24T07:00:43;3.33;;;0.70;;
41739;SDS011;27422;52.444;13.300;2023-04-24T07:03:08;1.23;;;0.50;;
41739;SDS011;27422;52.444;13.300;2023-04-24T07:05:34;2.42;;;0.70;;
41739;SDS011;27422;52.444;13.300;2023-04-24T07:08:00;1.30;;;0.50;;
41739;SDS011;27422;52.444;13.300;2023-04-24T07:10:26;2.10;;;0.60;;
41739;SDS011;27422;52.444;13.300;2023-04-24T07:12:53;1.88;;;0.60;;
41739;SDS011;27422;52.444;13.300;2023-04-24T07:15:19;1.63;;;0.60;;
41739;SDS011;27422;52.444;13.300;2023-04-24T07:17:44;1.00;;;0.40;;
41739;SDS011;27422;52.444;13.300;2023-04-24T07:20:10;2.05;;;0.52;;
41739;SDS011;27422;52.444;13.300;2023-04-24T07:22:39;2.17;;;0.30;;
41739;SDS011;27422;52.444;13.300;2023-04-24T07:25:04;1.30;;;0.50;;
41739;SDS011;27422;52.444;13.300;2023-04-24T07:27:30;0.80;;;0.40;;
41739;SDS011;27422;52.444;13.300;2023-04-24T07:29:55;1.10;;;0.50;;
41739;SDS011;27422;52.444;13.300;2023-04-24T07:32:21;1.48;;;0.65;;
41739;SDS011;27422;52.444;13.300;2023-04-24T07:34:46;0.50;;;0.28;;
41739;SDS011;27422;52.444;13.300;2023-04-24T07:37:11;1.20;;;0.40;;
41739;SDS011;27422;52.444;13.300;2023-04-24T07:39:37;0.93;;;0.40;;
41739;SDS011;27422;52.444;13.300;2023-04-24T07:42:02;1.40;;;0.40;;
41739;SDS011;27422;52.444;13.300;2023-04-24T07:44:28;1.40;;;0.47;;
41739;SDS011;27422;52.444;13.300;2023-04-24T07:46:54;1.20;;;0.40;;
41739;SDS011;27422;52.444;13.300;2023-04-24T07:49:19;1.85;;;0.50;;
41739;SDS011;27422;52.444;13.300;2023-04-24T07:51:45;1.60;;;0.40;;
41739;SDS011;27422;52.444;13.300;2023-04-24T07:54:10;1.70;;;0.40;;
41739;SDS011;27422;52.444;13.300;2023-04-24T07:56:36;1.33;;;0.40;;
41739;SDS011;27422;52.444;13.300;2023-04-24T07:59:04;1.42;;;0.50;;
41739;SDS011;27422;52.444;13.300;2023-04-24T08:01:29;1.90;;;0.55;;
41739;SDS011;27422;52.444;13.300;2023-04-24T08:03:55;0.70;;;0.30;;
41739;SDS011;27422;52.444;13.300;2023-04-24T08:06:21;0.88;;;0.30;;
41739;SDS011;27422;52.444;13.300;2023-04-24T08:08:46;1.27;;;0.28;;
41739;SDS011;27422;52.444;13.300;2023-04-24T08:11:11;1.05;;;0.50;;
41739;SDS011;27422;52.444;13.300;2023-04-24T08:13:37;1.15;;;0.30;;
41739;SDS011;27422;52.444;13.300;2023-04-24T08:16:02;1.40;;;0.55;;
41739;SDS011;27422;52.444;13.300;2023-04-24T08:18:27;1.52;;;0.35;;
41739;SDS011;27422;52.444;13.300;2023-04-24T08:20:53;1.77;;;0.50;;
41739;SDS011;27422;52.444;13.300;2023-04-24T08:23:18;3.35;;;0.47;;
41739;SDS011;27422;52.444;13.300;2023-04-24T08:25:44;1.42;;;0.30;;
41739;SDS011;27422;52.444;13.300;2023-04-24T08:28:09;1.00;;;0.40;;
41739;SDS011;27422;52.444;13.300;2023-04-24T08:30:35;1.63;;;0.30;;
41739;SDS011;27422;52.444;13.300;2023-04-24T08:33:01;0.93;;;0.30;;
41739;SDS011;27422;52.444;13.300;2023-04-24T08:35:26;0.65;;;0.30;;
41739;SDS011;27422;52.444;13.300;2023-04-24T08:37:52;2.58;;;0.65;;
41739;SDS011;27422;52.444;13.300;2023-04-24T08:40:18;2.00;;;0.40;;
41739;SDS011;27422;52.444;13.300;2023-04-24T08:42:48;0.80;;;0.22;;
41739;SDS011;27422;52.444;13.300;2023-04-24T08:45:14;1.88;;;0.30;;
41739;SDS011;27422;52.444;13.300;2023-04-24T08:47:40;0.60;;;0.30;;
41739;SDS011;27422;52.444;13.300;2023-04-24T08:50:07;1.25;;;0.40;;
41739;SDS011;27422;52.444;13.300;2023-04-24T08:52:33;1.02;;;0.30;;
41739;SDS011;27422;52.444;13.300;2023-04-24T08:55:02;0.82;;;0.25;;
41739;SDS011;27422;52.444;13.300;2023-04-24T08:57:28;0.80;;;0.43;;
41739;SDS011;27422;52.444;13.300;2023-04-24T08:59:55;2.47;;;0.55;;
41739;SDS011;27422;52.444;13.300;2023-04-24T09:02:21;1.23;;;0.43;;
41739;SDS011;27422;52.444;13.300;2023-04-24T09:04:46;3.13;;;0.40;;
41739;SDS011;27422;52.444;13.300;2023-04-24T09:07:12;0.80;;;0.40;;
41739;SDS011;27422;52.444;13.300;2023-04-24T09:09:39;1.27;;;0.50;;
41739;SDS011;27422;52.444;13.300;2023-04-24T09:12:05;2.17;;;0.50;;
41739;SDS011;27422;52.444;13.300;2023-04-24T09:14:31;0.95;;;0.40;;
41739;SDS011;27422;52.444;13.300;2023-04-24T09:16:58;0.90;;;0.40;;
41739;SDS011;27422;52.444;13.300;2023-04-24T09:19:23;2.22;;;0.40;;
41739;SDS011;27422;52.444;13.300;2023-04-24T09:21:48;1.10;;;0.40;;
41739;SDS011;27422;52.444;13.300;2023-04-24T09:24:18;0.95;;;0.47;;
41739;SDS011;27422;52.444;13.300;2023-04-24T09:26:46;1.75;;;0.77;;
41739;SDS011;27422;52.444;13.300;2023-04-24T09:29:15;1.02;;;0.30;;
41739;SDS011;27422;52.444;13.300;2023-04-24T09:31:41;2.05;;;0.60;;
41739;SDS011;27422;52.444;13.300;2023-04-24T09:34:07;1.10;;;0.47;;
41739;SDS011;27422;52.444;13.300;2023-04-24T09:36:33;1.65;;;0.50;;
41739;SDS011;27422;52.444;13.300;2023-04-24T09:39:10;1.35;;;0.50;;
41739;SDS011;27422;52.444;13.300;2023-04-24T09:41:46;1.02;;;0.40;;
41739;SDS011;27422;52.444;13.300;2023-04-24T09:44:23;1.80;;;0.40;;
41739;SDS011;27422;52.444;13.300;2023-04-24T09:49:16;0.63;;;0.30;;
41739;SDS011;27422;52.444;13.300;2023-04-24T09:51:47;1.23;;;0.38;;
41739;SDS011;27422;52.444;13.300;2023-04-24T09:54:21;1.48;;;0.40;;
41739;SDS011;27422;52.444;13.300;2023-04-24T09:56:50;1.25;;;0.50;;
41739;SDS011;27422;52.444;13.300;2023-04-24T09:59:16;1.35;;;0.52;;
41739;SDS011;27422;52.444;13.300;2023-04-24T10:01:42;1.15;;;0.50;;
41739;SDS011;27422;52.444;13.300;2023-04-24T10:04:24;2.97;;;0.60;;
41739;SDS011;27422;52.444;13.300;2023-04-24T10:06:52;0.98;;;0.30;;
41739;SDS011;27422;52.444;13.300;2023-04-24T10:09:19;1.13;;;0.30;;
41739;SDS011;27422;52.444;13.300;2023-04-24T10:11:49;3.28;;;0.40;;
41739;SDS011;27422;52.444;13.300;2023-04-24T10:14:16;0.88;;;0.40;;
41739;SDS011;27422;52.444;13.300;2023-04-24T10:16:43;1.50;;;0.40;;
41739;SDS011;27422;52.444;13.300;2023-04-24T10:19:09;1.00;;;0.40;;
41739;SDS011;27422;52.444;13.300;2023-04-24T10:21:35;0.95;;;0.32;;
41739;SDS011;27422;52.444;13.300;2023-04-24T10:24:07;1.27;;;0.40;;
41739;SDS011;27422;52.444;13.300;2023-04-24T10:26:33;1.75;;;0.40;;
41739;SDS011;27422;52.444;13.300;2023-04-24T10:28:59;0.60;;;0.30;;
41739;SDS011;27422;52.444;13.300;2023-04-24T10:31:26;0.73;;;0.30;;
41739;SDS011;27422;52.444;13.300;2023-04-24T10:36:18;1.20;;;0.40;;
41739;SDS011;27422;52.444;13.300;2023-04-24T10:38:47;1.55;;;0.50;;
41739;SDS011;27422;52.444;13.300;2023-04-24T10:41:14;1.02;;;0.50;;
41739;SDS011;27422;52.444;13.300;2023-04-24T10:43:45;1.27;;;0.40;;
41739;SDS011;27422;52.444;13.300;2023-04-24T10:46:11;1.23;;;0.40;;
41739;SDS011;27422;52.444;13.300;2023-04-24T10:48:42;1.13;;;0.50;;
41739;SDS011;27422;52.444;13.300;2023-04-24T10:51:12;1.83;;;0.40;;
41739;SDS011;27422;52.444;13.300;2023-04-24T10:53:39;2.17;;;0.55;;
41739;SDS011;27422;52.444;13.300;2023-04-24T10:56:08;1.55;;;0.43;;
41739;SDS011;27422;52.444;13.300;2023-04-24T10:58:42;1.38;;;0.40;;
41739;SDS011;27422;52.444;13.300;2023-04-24T11:03:55;0.82;;;0.30;;
41739;SDS011;27422;52.444;13.300;2023-04-24T11:06:31;3.63;;;0.40;;
41739;SDS011;27422;52.444;13.300;2023-04-24T11:11:32;0.88;;;0.30;;
41739;SDS011;27422;52.444;13.300;2023-04-24T11:16:28;1.13;;;0.30;;
41739;SDS011;27422;52.444;13.300;2023-04-24T11:19:09;1.33;;;0.50;;
41739;SDS011;27422;52.444;13.300;2023-04-24T11:21:44;1.30;;;0.50;;
41739;SDS011;27422;52.444;13.300;2023-04-24T11:26:56;0.90;;;0.43;;
41739;SDS011;27422;52.444;13.300;2023-04-24T11:29:23;1.17;;;0.40;;
41739;SDS011;27422;52.444;13.300;2023-04-24T11:31:49;2.10;;;0.70;;
41739;SDS011;27422;52.444;13.300;2023-04-24T11:34:17;1.52;;;0.57;;
41739;SDS011;27422;52.444;13.300;2023-04-24T11:36:44;1.48;;;0.50;;
41739;SDS011;27422;52.444;13.300;2023-04-24T11:39:12;3.03;;;0.60;;
41739;SDS011;27422;52.444;13.300;2023-04-24T11:41:38;1.10;;;0.43;;
41739;SDS011;27422;52.444;13.300;2023-04-24T11:44:06;1.15;;;0.50;;
41739;SDS011;27422;52.444;13.300;2023-04-24T11:46:32;1.35;;;0.45;;
41739;SDS011;27422;52.444;13.300;2023-04-24T11:48:58;1.02;;;0.50;;
41739;SDS011;27422;52.444;13.300;2023-04-24T11:51:24;1.70;;;0.63;;
41739;SDS011;27422;52.444;13.300;2023-04-24T11:53:54;1.55;;;0.50;;
41739;SDS011;27422;52.444;13.300;2023-04-24T11:56:23;1.88;;;0.57;;
41739;SDS011;27422;52.444;13.300;2023-04-24T11:58:51;0.85;;;0.35;;
41739;SDS011;27422;52.444;13.300;2023-04-24T12:01:18;1.52;;;0.45;;
41739;SDS011;27422;52.444;13.300;2023-04-24T12:03:47;1.67;;;0.40;;
41739;SDS011;27422;52.444;13.300;2023-04-24T12:06:13;2.03;;;0.50;;
41739;SDS011;27422;52.444;13.300;2023-04-24T12:08:38;2.50;;;0.60;;
41739;SDS011;27422;52.444;13.300;2023-04-24T12:11:04;0.63;;;0.30;;
41739;SDS011;27422;52.444;13.300;2023-04-24T12:13:32;0.85;;;0.40;;
41739;SDS011;27422;52.444;13.300;2023-04-24T12:15:58;1.60;;;0.65;;
41739;SDS011;27422;52.444;13.300;2023-04-24T12:18:25;0.60;;;0.25;;
41739;SDS011;27422;52.444;13.300;2023-04-24T12:20:50;0.52;;;0.30;;
41739;SDS011;27422;52.444;13.300;2023-04-24T12:23:16;1.10;;;0.40;;
41739;SDS011;27422;52.444;13.300;2023-04-24T12:25:42;1.77;;;0.30;;
41739;SDS011;27422;52.444;13.300;2023-04-24T12:28:09;1.27;;;0.50;;
41739;SDS011;27422;52.444;13.300;2023-04-24T12:30:47;0.73;;;0.40;;
41739;SDS011;27422;52.444;13.300;2023-04-24T12:33:17;1.23;;;0.43;;
41739;SDS011;27422;52.444;13.300;2023-04-24T12:35:43;1.05;;;0.40;;
41739;SDS011;27422;52.444;13.300;2023-04-24T12:38:09;0.90;;;0.30;;
41739;SDS011;27422;52.444;13.300;2023-04-24T12:40:38;0.85;;;0.30;;
41739;SDS011;27422;52.444;13.300;2023-04-24T12:43:13;0.90;;;0.40;;
41739;SDS011;27422;52.444;13.300;2023-04-24T12:45:42;1.05;;;0.43;;
41739;SDS011;27422;52.444;13.300;2023-04-24T12:48:08;0.88;;;0.35;;
41739;SDS011;27422;52.444;13.300;2023-04-24T12:50:34;0.52;;;0.30;;
41739;SDS011;27422;52.444;13.300;2023-04-24T12:52:59;0.80;;;0.40;;
41739;SDS011;27422;52.444;13.300;2023-04-24T12:55:25;1.13;;;0.40;;
41739;SDS011;27422;52.444;13.300;2023-04-24T12:57:50;1.10;;;0.40;;
41739;SDS011;27422;52.444;13.300;2023-04-24T13:00:17;1.40;;;0.50;;
41739;SDS011;27422;52.444;13.300;2023-04-24T13:02:42;1.88;;;0.40;;
41739;SDS011;27422;52.444;13.300;2023-04-24T13:05:08;1.75;;;0.80;;
41739;SDS011;27422;52.444;13.300;2023-04-24T13:07:33;1.00;;;0.40;;
41739;SDS011;27422;52.444;13.300;2023-04-24T13:09:59;0.50;;;0.30;;
41739;SDS011;27422;52.444;13.300;2023-04-24T13:12:24;0.95;;;0.30;;
41739;SDS011;27422;52.444;13.300;2023-04-24T13:14:51;1.83;;;0.32;;
41739;SDS011;27422;52.444;13.300;2023-04-24T13:17:18;0.82;;;0.30;;
41739;SDS011;27422;52.444;13.300;2023-04-24T13:19:44;1.50;;;0.30;;
41739;SDS011;27422;52.444;13.300;2023-04-24T13:22:10;0.68;;;0.30;;
41739;SDS011;27422;52.444;13.300;2023-04-24T13:24:36;0.75;;;0.30;;
41739;SDS011;27422;52.444;13.300;2023-04-24T13:27:03;1.00;;;0.40;;
41739;SDS011;27422;52.444;13.300;2023-04-24T13:29:28;1.05;;;0.40;;
41739;SDS011;27422;52.444;13.300;2023-04-24T13:31:54;1.73;;;0.38;;
41739;SDS011;27422;52.444;13.300;2023-04-24T13:34:20;1.15;;;0.40;;
41739;SDS011;27422;52.444;13.300;2023-04-24T13:36:46;0.50;;;0.30;;
41739;SDS011;27422;52.444;13.300;2023-04-24T13:39:11;0.70;;;0.30;;
41739;SDS011;27422;52.444;13.300;2023-04-24T13:41:37;1.02;;;0.30;;
41739;SDS011;27422;52.444;13.300;2023-04-24T13:44:03;0.52;;;0.20;;
41739;SDS011;27422;52.444;13.300;2023-04-24T13:46:29;1.13;;;0.40;;
41739;SDS011;27422;52.444;13.300;2023-04-24T13:48:55;1.48;;;0.50;;
41739;SDS011;27422;52.444;13.300;2023-04-24T13:51:23;0.70;;;0.30;;
41739;SDS011;27422;52.444;13.300;2023-04-24T13:53:50;2.45;;;0.52;;
41739;SDS011;27422;52.444;13.300;2023-04-24T13:56:16;1.95;;;0.50;;
41739;SDS011;27422;52.444;13.300;2023-04-24T13:58:41;1.55;;;0.45;;
41739;SDS011;27422;52.444;13.300;2023-04-24T14:01:07;1.13;;;0.47;;
41739;SDS011;27422;52.444;13.300;2023-04-24T14:03:33;1.73;;;0.50;;
41739;SDS011;27422;52.444;13.300;2023-04-24T14:05:58;1.15;;;0.45;;
41739;SDS011;27422;52.444;13.300;2023-04-24T14:08:24;2.33;;;0.52;;
41739;SDS011;27422;52.444;13.300;2023-04-24T14:10:50;2.40;;;0.43;;
41739;SDS011;27422;52.444;13.300;2023-04-24T14:13:16;1.13;;;0.38;;
41739;SDS011;27422;52.444;13.300;2023-04-24T14:15:41;0.90;;;0.30;;
41739;SDS011;27422;52.444;13.300;2023-04-24T14:18:06;1.20;;;0.40;;
41739;SDS011;27422;52.444;13.300;2023-04-24T14:20:32;2.40;;;0.50;;
41739;SDS011;27422;52.444;13.300;2023-04-24T14:22:57;1.67;;;0.50;;
41739;SDS011;27422;52.444;13.300;2023-04-24T14:25:24;1.30;;;0.45;;
41739;SDS011;27422;52.444;13.300;2023-04-24T14:27:50;2.00;;;0.68;;
41739;SDS011;27422;52.444;13.300;2023-04-24T14:30:15;1.58;;;0.63;;
41739;SDS011;27422;52.444;13.300;2023-04-24T14:32:41;1.42;;;0.47;;
41739;SDS011;27422;52.444;13.300;2023-04-24T14:35:06;2.25;;;0.50;;
41739;SDS011;27422;52.444;13.300;2023-04-24T14:37:32;1.50;;;0.40;;
41739;SDS011;27422;52.444;13.300;2023-04-24T14:39:57;0.90;;;0.40;;
41739;SDS011;27422;52.444;13.300;2023-04-24T14:42:23;1.27;;;0.52;;